createdAt,value
2016-04-30T00:00:05.504Z,1014.68
2016-04-30T00:01:05.491Z,1014.7
2016-04-30T00:02:05.478Z,1014.66
2016-04-30T00:03:05.480Z,1014.65
2016-04-30T00:04:05.467Z,1014.6
2016-04-30T00:05:05.471Z,1014.6
2016-04-30T00:06:05.457Z,1014.61
2016-04-30T00:07:05.460Z,1014.64
2016-04-30T00:08:05.447Z,1014.63
2016-04-30T00:09:05.449Z,1014.65
2016-04-30T00:10:05.437Z,1014.63
2016-04-30T00:11:05.424Z,1014.59
2016-04-30T00:12:05.426Z,1014.64
2016-04-30T00:13:05.414Z,1014.62
2016-04-30T00:14:05.417Z,1014.62
2016-04-30T00:15:05.404Z,1014.62
2016-04-30T00:16:05.390Z,1014.61
2016-04-30T00:17:05.393Z,1014.66
2016-04-30T00:18:05.380Z,1014.63
2016-04-30T00:19:05.383Z,1014.62
2016-04-30T00:20:05.370Z,1014.64
2016-04-30T00:21:05.357Z,1014.61
2016-04-30T00:22:05.359Z,1014.63
2016-04-30T00:23:05.347Z,1014.61
2016-04-30T00:24:05.350Z,1014.58
2016-04-30T00:25:05.336Z,1014.6
2016-04-30T00:26:05.325Z,1014.58
2016-04-30T00:27:05.327Z,1014.59
2016-04-30T00:29:05.316Z,1014.58
2016-04-30T00:30:05.803Z,1014.59
2016-04-30T00:31:05.305Z,1014.55
2016-04-30T00:32:05.294Z,1014.59
2016-04-30T00:33:05.280Z,1014.54
2016-04-30T00:34:05.283Z,1014.54
2016-04-30T00:35:05.285Z,1014.54
2016-04-30T00:36:05.272Z,1014.56
2016-04-30T00:37:05.260Z,1014.55
2016-04-30T00:38:05.263Z,1014.54
2016-04-30T00:39:05.249Z,1014.56
2016-04-30T00:40:05.236Z,1014.57
2016-04-30T00:41:05.239Z,1014.55
2016-04-30T00:42:05.226Z,1014.57
2016-04-30T00:43:05.213Z,1014.56
2016-04-30T00:44:05.216Z,1014.55
2016-04-30T00:45:05.203Z,1014.55
2016-04-30T00:46:05.206Z,1014.53
2016-04-30T00:47:05.193Z,1014.54
2016-04-30T00:48:05.195Z,1014.54
2016-04-30T00:49:05.182Z,1014.59
2016-04-30T00:50:05.170Z,1014.53
2016-04-30T00:51:05.172Z,1014.56
2016-04-30T00:52:05.159Z,1014.59
2016-04-30T00:53:05.147Z,1014.56
2016-04-30T00:54:05.150Z,1014.55
2016-04-30T00:55:05.136Z,1014.55
2016-04-30T00:56:05.123Z,1014.54
2016-04-30T00:57:05.125Z,1014.59
2016-04-30T00:58:05.113Z,1014.57
2016-04-30T00:59:05.116Z,1014.6
2016-04-30T01:00:05.103Z,1014.57
2016-04-30T01:01:05.089Z,1014.59
2016-04-30T01:02:05.092Z,1014.57
2016-04-30T01:03:06.141Z,1014.59
2016-04-30T01:04:05.630Z,1014.56
2016-04-30T01:05:05.069Z,1014.57
2016-04-30T01:06:05.056Z,1014.56
2016-04-30T01:07:05.060Z,1014.59
2016-04-30T01:08:05.249Z,1014.58
2016-04-30T01:09:05.033Z,1014.57
2016-04-30T01:10:05.035Z,1014.58
2016-04-30T01:11:05.023Z,1014.55
2016-04-30T01:12:05.010Z,1014.57
2016-04-30T01:13:05.013Z,1014.58
2016-04-30T01:14:05.421Z,1014.58
2016-04-30T01:15:04.987Z,1014.57
2016-04-30T01:16:05.349Z,1014.54
2016-04-30T01:17:04.976Z,1014.53
2016-04-30T01:18:04.979Z,1014.57
2016-04-30T01:19:04.967Z,1014.53
2016-04-30T01:20:04.953Z,1014.56
2016-04-30T01:21:04.956Z,1014.5
2016-04-30T01:22:04.943Z,1014.5
2016-04-30T01:23:04.930Z,1014.49
2016-04-30T01:24:04.917Z,1014.53
2016-04-30T01:25:04.920Z,1014.53
2016-04-30T01:26:04.906Z,1014.5
2016-04-30T01:27:04.909Z,1014.51
2016-04-30T01:28:04.897Z,1014.51
2016-04-30T01:29:04.883Z,1014.5
2016-04-30T01:30:04.871Z,1014.55
2016-04-30T01:31:04.873Z,1014.51
2016-04-30T01:32:04.860Z,1014.51
2016-04-30T01:33:04.864Z,1014.51
2016-04-30T01:34:04.850Z,1014.53
2016-04-30T01:35:04.838Z,1014.52
2016-04-30T01:36:04.840Z,1014.5
2016-04-30T01:37:04.827Z,1014.53
2016-04-30T01:38:04.814Z,1014.48
2016-04-30T01:39:04.816Z,1014.51
2016-04-30T01:40:04.804Z,1014.48
2016-04-30T01:41:04.791Z,1014.5
2016-04-30T01:42:04.793Z,1014.5
2016-04-30T01:43:04.781Z,1014.5
2016-04-30T01:44:04.768Z,1014.46
2016-04-30T01:45:04.771Z,1014.47
2016-04-30T01:46:04.758Z,1014.46
2016-04-30T01:47:05.901Z,1014.47
2016-04-30T01:48:04.747Z,1014.45
2016-04-30T01:49:04.734Z,1014.43
2016-04-30T01:50:04.721Z,1014.45
2016-04-30T01:51:04.770Z,1014.4
2016-04-30T01:52:04.712Z,1014.43
2016-04-30T01:53:04.714Z,1014.41
2016-04-30T01:54:04.748Z,1014.43
2016-04-30T01:55:04.688Z,1014.39
2016-04-30T01:56:05.441Z,1014.39
2016-04-30T01:57:04.678Z,1014.39
2016-04-30T01:58:04.664Z,1014.39
2016-04-30T01:59:04.652Z,1014.38
2016-04-30T02:00:04.952Z,1014.41
2016-04-30T02:01:04.642Z,1014.37
2016-04-30T02:02:04.644Z,1014.39
2016-04-30T02:03:04.631Z,1014.41
2016-04-30T02:04:04.619Z,1014.4
2016-04-30T02:05:04.606Z,1014.4
2016-04-30T02:06:04.608Z,1014.37
2016-04-30T02:07:04.596Z,1014.4
2016-04-30T02:08:04.598Z,1014.41
2016-04-30T02:09:04.585Z,1014.4
2016-04-30T02:10:04.572Z,1014.41
2016-04-30T02:11:04.574Z,1014.4
2016-04-30T02:12:04.562Z,1014.41
2016-04-30T02:13:04.549Z,1014.43
2016-04-30T02:14:04.552Z,1014.41
2016-04-30T02:15:04.538Z,1014.43
2016-04-30T02:16:04.525Z,1014.41
2016-04-30T02:17:04.528Z,1014.38
2016-04-30T02:18:04.516Z,1014.41
2016-04-30T02:19:04.503Z,1014.38
2016-04-30T02:20:05.334Z,1014.43
2016-04-30T02:21:05.383Z,1014.4
2016-04-30T02:22:04.479Z,1014.44
2016-04-30T02:23:05.373Z,1014.45
2016-04-30T02:24:04.470Z,1014.45
2016-04-30T02:25:04.456Z,1014.46
2016-04-30T02:26:04.443Z,1014.42
2016-04-30T02:27:04.445Z,1014.43
2016-04-30T02:28:04.433Z,1014.42
2016-04-30T02:29:04.436Z,1014.41
2016-04-30T02:30:05.453Z,1014.4
2016-04-30T02:31:04.411Z,1014.41
2016-04-30T02:32:04.397Z,1014.37
2016-04-30T02:33:05.181Z,1014.36
2016-04-30T02:34:04.761Z,1014.39
2016-04-30T02:35:04.374Z,1014.37
2016-04-30T02:36:04.376Z,1014.42
2016-04-30T02:37:04.363Z,1014.43
2016-04-30T02:38:04.350Z,1014.43
2016-04-30T02:39:04.353Z,1014.45
2016-04-30T02:40:04.340Z,1014.47
2016-04-30T02:41:04.327Z,1014.45
2016-04-30T02:42:04.330Z,1014.49
2016-04-30T02:43:04.317Z,1014.47
2016-04-30T02:44:04.304Z,1014.47
2016-04-30T02:45:04.307Z,1014.51
2016-04-30T02:46:04.294Z,1014.48
2016-04-30T02:47:04.281Z,1014.49
2016-04-30T02:48:04.284Z,1014.45
2016-04-30T02:49:04.270Z,1014.48
2016-04-30T02:50:04.258Z,1014.52
2016-04-30T02:51:04.245Z,1014.46
2016-04-30T02:52:04.248Z,1014.48
2016-04-30T02:53:04.234Z,1014.47
2016-04-30T02:54:04.222Z,1014.51
2016-04-30T02:55:04.224Z,1014.46
2016-04-30T02:56:04.211Z,1014.45
2016-04-30T02:57:04.199Z,1014.48
2016-04-30T02:58:04.201Z,1014.45
2016-04-30T02:59:04.189Z,1014.44
2016-04-30T03:00:04.175Z,1014.41
2016-04-30T03:01:04.161Z,1014.39
2016-04-30T03:02:04.164Z,1014.42
2016-04-30T03:03:04.152Z,1014.38
2016-04-30T03:04:04.952Z,1014.41
2016-04-30T03:05:04.142Z,1014.39
2016-04-30T03:06:04.629Z,1014.38
2016-04-30T03:07:04.616Z,1014.37
2016-04-30T03:08:04.119Z,1014.33
2016-04-30T03:09:04.106Z,1014.37
2016-04-30T03:10:04.093Z,1014.36
2016-04-30T03:11:04.143Z,1014.38
2016-04-30T03:12:04.082Z,1014.34
2016-04-30T03:13:04.069Z,1014.38
2016-04-30T03:14:04.072Z,1014.34
2016-04-30T03:16:04.047Z,1014.36
2016-04-30T03:17:04.440Z,1014.35
2016-04-30T03:18:04.474Z,1014.37
2016-04-30T03:19:04.023Z,1014.36
2016-04-30T03:20:04.010Z,1014.37
2016-04-30T03:21:04.012Z,1014.33
2016-04-30T03:22:04.000Z,1014.35
2016-04-30T03:23:03.987Z,1014.34
2016-04-30T03:24:03.990Z,1014.34
2016-04-30T03:25:03.976Z,1014.34
2016-04-30T03:26:03.965Z,1014.3
2016-04-30T03:27:03.951Z,1014.29
2016-04-30T03:28:03.953Z,1014.26
2016-04-30T03:29:03.941Z,1014.29
2016-04-30T03:30:03.928Z,1014.27
2016-04-30T03:31:03.931Z,1014.26
2016-04-30T03:32:03.917Z,1014.27
2016-04-30T03:33:03.954Z,1014.26
2016-04-30T03:34:03.993Z,1014.25
2016-04-30T03:35:04.050Z,1014.27
2016-04-30T03:36:04.089Z,1014.28
2016-04-30T03:37:04.130Z,1014.26
2016-04-30T03:38:04.154Z,1014.29
2016-04-30T03:39:04.159Z,1014.25
2016-04-30T03:40:04.181Z,1014.29
2016-04-30T03:41:04.171Z,1014.29
2016-04-30T03:42:04.193Z,1014.3
2016-04-30T03:43:04.187Z,1014.28
2016-04-30T03:44:04.197Z,1014.3
2016-04-30T03:45:04.191Z,1014.27
2016-04-30T03:46:04.185Z,1014.29
2016-04-30T03:47:04.179Z,1014.31
2016-04-30T03:48:05.731Z,1014.28
2016-04-30T03:49:04.502Z,1014.26
2016-04-30T03:50:04.164Z,1014.31
2016-04-30T03:51:04.169Z,1014.31
2016-04-30T03:52:04.410Z,1014.36
2016-04-30T03:53:04.148Z,1014.34
2016-04-30T03:54:04.135Z,1014.36
2016-04-30T03:55:04.139Z,1014.35
2016-04-30T03:56:04.127Z,1014.38
2016-04-30T03:57:04.114Z,1014.4
2016-04-30T03:58:04.117Z,1014.41
2016-04-30T03:59:04.105Z,1014.4
2016-04-30T04:00:04.092Z,1014.43
2016-04-30T04:01:04.080Z,1014.43
2016-04-30T04:02:04.083Z,1014.46
2016-04-30T04:03:04.071Z,1014.49
2016-04-30T04:04:04.074Z,1014.45
2016-04-30T04:05:04.060Z,1014.53
2016-04-30T04:06:04.046Z,1014.49
2016-04-30T04:07:04.049Z,1014.5
2016-04-30T04:08:04.036Z,1014.51
2016-04-30T04:09:04.024Z,1014.54
2016-04-30T04:10:04.027Z,1014.53
2016-04-30T04:11:04.013Z,1014.53
2016-04-30T04:12:04.001Z,1014.53
2016-04-30T04:13:04.003Z,1014.54
2016-04-30T04:14:03.990Z,1014.56
2016-04-30T04:15:03.978Z,1014.55
2016-04-30T04:16:03.981Z,1014.56
2016-04-30T04:17:03.967Z,1014.55
2016-04-30T04:18:03.954Z,1014.53
2016-04-30T04:19:04.191Z,1014.54
2016-04-30T04:20:03.944Z,1014.53
2016-04-30T04:21:03.947Z,1014.57
2016-04-30T04:22:03.918Z,1014.58
2016-04-30T04:23:03.920Z,1014.57
2016-04-30T04:24:03.908Z,1014.6
2016-04-30T04:25:03.910Z,1014.52
2016-04-30T04:26:03.897Z,1014.59
2016-04-30T04:27:03.994Z,1014.61
2016-04-30T04:28:03.888Z,1014.57
2016-04-30T04:29:03.875Z,1014.65
2016-04-30T04:30:04.018Z,1014.63
2016-04-30T04:31:03.864Z,1014.64
2016-04-30T04:32:03.851Z,1014.63
2016-04-30T04:33:03.854Z,1014.67
2016-04-30T04:34:03.840Z,1014.67
2016-04-30T04:35:03.828Z,1014.71
2016-04-30T04:36:03.830Z,1014.66
2016-04-30T04:37:03.818Z,1014.71
2016-04-30T04:38:03.821Z,1014.68
2016-04-30T04:39:03.807Z,1014.65
2016-04-30T04:40:03.810Z,1014.7
2016-04-30T04:41:03.798Z,1014.69
2016-04-30T04:42:03.784Z,1014.67
2016-04-30T04:43:03.787Z,1014.7
2016-04-30T04:44:03.790Z,1014.71
2016-04-30T04:45:03.776Z,1014.74
2016-04-30T04:46:03.764Z,1014.71
2016-04-30T04:47:03.767Z,1014.72
2016-04-30T04:48:03.754Z,1014.73
2016-04-30T04:49:03.756Z,1014.76
2016-04-30T04:50:03.743Z,1014.74
2016-04-30T04:51:03.730Z,1014.76
2016-04-30T04:52:03.733Z,1014.76
2016-04-30T04:53:03.719Z,1014.74
2016-04-30T04:54:03.723Z,1014.75
2016-04-30T04:55:03.710Z,1014.81
2016-04-30T04:56:03.713Z,1014.83
2016-04-30T04:57:03.715Z,1014.81
2016-04-30T04:58:03.702Z,1014.9
2016-04-30T04:59:03.689Z,1014.85
2016-04-30T05:00:03.692Z,1014.84
2016-04-30T05:01:03.680Z,1014.87
2016-04-30T05:02:04.463Z,1014.88
2016-04-30T05:03:03.669Z,1014.91
2016-04-30T05:04:03.796Z,1014.88
2016-04-30T05:05:03.705Z,1014.89
2016-04-30T05:06:03.661Z,1014.91
2016-04-30T05:07:03.664Z,1014.94
2016-04-30T05:08:03.666Z,1014.98
2016-04-30T05:09:04.419Z,1014.97
2016-04-30T05:10:03.656Z,1014.97
2016-04-30T05:11:03.799Z,1014.97
2016-04-30T05:12:03.646Z,1014.97
2016-04-30T05:13:03.649Z,1014.94
2016-04-30T05:14:03.651Z,1015
2016-04-30T05:15:03.639Z,1014.99
2016-04-30T05:16:03.642Z,1014.99
2016-04-30T05:17:03.644Z,1015.02
2016-04-30T05:18:03.631Z,1015.01
2016-04-30T05:19:04.181Z,1014.99
2016-04-30T05:20:03.637Z,1015.04
2016-04-30T05:21:03.623Z,1015.05
2016-04-30T05:22:03.626Z,1015.05
2016-04-30T05:23:03.628Z,1015.07
2016-04-30T05:24:03.616Z,1015.08
2016-04-30T05:25:03.619Z,1015.14
2016-04-30T05:26:03.622Z,1015.11
2016-04-30T05:27:03.608Z,1015.12
2016-04-30T05:28:03.611Z,1015.14
2016-04-30T05:29:03.614Z,1015.15
2016-04-30T05:30:03.600Z,1015.16
2016-04-30T05:31:03.603Z,1015.18
2016-04-30T05:32:03.606Z,1015.19
2016-04-30T05:33:03.608Z,1015.22
2016-04-30T05:34:03.611Z,1015.2
2016-04-30T05:35:03.599Z,1015.2
2016-04-30T05:36:03.601Z,1015.18
2016-04-30T05:37:03.605Z,1015.2
2016-04-30T05:38:03.591Z,1015.19
2016-04-30T05:39:03.594Z,1015.2
2016-04-30T05:40:03.596Z,1015.22
2016-04-30T05:41:03.599Z,1015.23
2016-04-30T05:42:03.586Z,1015.22
2016-04-30T05:43:03.589Z,1015.2
2016-04-30T05:44:03.685Z,1015.22
2016-04-30T05:45:03.938Z,1015.21
2016-04-30T05:46:03.582Z,1015.18
2016-04-30T05:47:03.584Z,1015.2
2016-04-30T05:48:03.587Z,1015.19
2016-04-30T05:49:03.590Z,1015.21
2016-04-30T05:50:03.592Z,1015.28
2016-04-30T05:51:03.579Z,1015.27
2016-04-30T05:52:03.581Z,1015.3
2016-04-30T05:53:04.584Z,1015.29
2016-04-30T05:55:03.589Z,1015.35
2016-04-30T05:56:03.577Z,1015.41
2016-04-30T05:57:03.580Z,1015.41
2016-04-30T05:58:03.583Z,1015.36
2016-04-30T05:59:03.586Z,1015.38
2016-04-30T06:00:03.573Z,1015.44
2016-04-30T06:01:03.574Z,1015.42
2016-04-30T06:02:03.577Z,1015.46
2016-04-30T06:03:03.581Z,1015.5
2016-04-30T06:04:03.583Z,1015.5
2016-04-30T06:05:03.586Z,1015.46
2016-04-30T06:06:03.572Z,1015.47
2016-04-30T06:07:03.575Z,1015.5
2016-04-30T06:08:03.578Z,1015.56
2016-04-30T06:09:03.580Z,1015.52
2016-04-30T06:10:03.583Z,1015.54
2016-04-30T06:11:03.586Z,1015.65
2016-04-30T06:12:03.589Z,1015.72
2016-04-30T06:13:03.591Z,1015.7
2016-04-30T06:14:03.579Z,1015.65
2016-04-30T06:15:03.581Z,1015.61
2016-04-30T06:16:03.584Z,1015.66
2016-04-30T06:17:04.587Z,1015.69
2016-04-30T06:18:03.589Z,1015.74
2016-04-30T06:19:03.592Z,1015.76
2016-04-30T06:20:03.595Z,1015.85
2016-04-30T06:21:03.942Z,1015.88
2016-04-30T06:22:03.600Z,1015.95
2016-04-30T06:23:03.597Z,1015.89
2016-04-30T06:24:03.600Z,1015.89
2016-04-30T06:25:03.602Z,1015.86
2016-04-30T06:26:03.871Z,1015.95
2016-04-30T06:27:03.608Z,1016.01
2016-04-30T06:28:03.611Z,1016
2016-04-30T06:29:03.613Z,1016.04
2016-04-30T06:30:03.710Z,1016.08
2016-04-30T06:31:03.619Z,1016.12
2016-04-30T06:32:03.622Z,1016.12
2016-04-30T06:33:03.624Z,1016.16
2016-04-30T06:34:03.643Z,1016.15
2016-04-30T06:35:03.645Z,1016.09
2016-04-30T06:36:03.648Z,1016.1
2016-04-30T06:37:03.651Z,1016.17
2016-04-30T06:38:03.653Z,1016.28
2016-04-30T06:39:03.656Z,1016.31
2016-04-30T06:40:03.659Z,1016.27
2016-04-30T06:41:03.662Z,1016.25
2016-04-30T06:42:03.679Z,1016.36
2016-04-30T06:43:03.682Z,1016.39
2016-04-30T06:44:03.684Z,1016.34
2016-04-30T06:45:03.687Z,1016.36
2016-04-30T06:46:03.690Z,1016.39
2016-04-30T06:47:03.692Z,1016.44
2016-04-30T06:48:03.711Z,1016.38
2016-04-30T06:49:03.761Z,1016.39
2016-04-30T06:50:03.717Z,1016.4
2016-04-30T06:51:03.720Z,1016.35
2016-04-30T06:52:03.737Z,1016.3
2016-04-30T06:53:03.739Z,1016.32
2016-04-30T06:54:03.743Z,1016.28
2016-04-30T06:55:03.746Z,1016.26
2016-04-30T06:56:03.764Z,1016.21
2016-04-30T06:57:03.766Z,1016.25
2016-04-30T06:58:03.785Z,1016.23
2016-04-30T06:59:03.788Z,1016.19
2016-04-30T07:00:03.791Z,1016.23
2016-04-30T07:01:03.809Z,1016.16
2016-04-30T07:02:04.764Z,1016.16
2016-04-30T07:03:03.814Z,1016.15
2016-04-30T07:04:05.224Z,1016.12
2016-04-30T07:05:03.835Z,1016.06
2016-04-30T07:06:03.837Z,1016.03
2016-04-30T07:07:03.857Z,1016.03
2016-04-30T07:08:03.859Z,1016
2016-04-30T07:09:03.877Z,1015.99
2016-04-30T07:10:03.880Z,1015.94
2016-04-30T07:11:03.882Z,1015.95
2016-04-30T07:12:03.901Z,1015.87
2016-04-30T07:13:03.904Z,1015.93
2016-04-30T07:14:03.921Z,1015.92
2016-04-30T07:15:03.924Z,1015.95
2016-04-30T07:16:03.943Z,1015.96
2016-04-30T07:17:03.946Z,1015.97
2016-04-30T07:18:03.964Z,1015.95
2016-04-30T07:19:03.967Z,1015.91
2016-04-30T07:20:03.984Z,1015.96
2016-04-30T07:21:03.987Z,1015.97
2016-04-30T07:22:04.006Z,1015.96
2016-04-30T07:23:04.009Z,1015.96
2016-04-30T07:24:04.027Z,1016.02
2016-04-30T07:25:04.030Z,1016.02
2016-04-30T07:26:04.033Z,1016.02
2016-04-30T07:27:04.050Z,1015.96
2016-04-30T07:28:04.053Z,1016.01
2016-04-30T07:29:04.072Z,1015.96
2016-04-30T07:30:04.090Z,1015.96
2016-04-30T07:31:04.092Z,1016.02
2016-04-30T07:32:04.111Z,1016.02
2016-04-30T07:33:04.113Z,1016
2016-04-30T07:34:04.132Z,1016.01
2016-04-30T07:35:05.322Z,1015.97
2016-04-30T07:36:04.153Z,1015.91
2016-04-30T07:37:04.233Z,1015.92
2016-04-30T07:38:04.174Z,1015.93
2016-04-30T07:39:04.193Z,1015.95
2016-04-30T07:40:04.195Z,1015.98
2016-04-30T07:41:04.213Z,1016.06
2016-04-30T07:42:04.232Z,1015.95
2016-04-30T07:43:04.234Z,1015.89
2016-04-30T07:44:04.252Z,1015.87
2016-04-30T07:45:04.255Z,1015.98
2016-04-30T07:46:05.617Z,1015.93
2016-04-30T07:47:04.292Z,1016
2016-04-30T07:48:04.404Z,1016.09
2016-04-30T07:49:04.313Z,1016.03
2016-04-30T07:50:04.331Z,1016.05
2016-04-30T07:51:04.334Z,1016.04
2016-04-30T07:52:04.352Z,1016.01
2016-04-30T07:53:04.370Z,1016.01
2016-04-30T07:54:04.389Z,1015.97
2016-04-30T07:55:04.392Z,1015.99
2016-04-30T07:56:04.409Z,1015.97
2016-04-30T07:57:04.428Z,1015.94
2016-04-30T07:58:04.447Z,1015.96
2016-04-30T07:59:04.464Z,1016.01
2016-04-30T08:00:04.467Z,1016.01
2016-04-30T08:01:04.486Z,1015.97
2016-04-30T08:02:04.504Z,1015.9
2016-04-30T08:03:04.522Z,1015.84
2016-04-30T08:04:04.541Z,1015.81
2016-04-30T08:05:04.558Z,1015.84
2016-04-30T08:06:04.577Z,1015.84
2016-04-30T08:07:04.595Z,1015.82
2016-04-30T08:08:04.599Z,1015.77
2016-04-30T08:09:04.617Z,1015.67
2016-04-30T08:10:04.635Z,1015.67
2016-04-30T08:11:04.653Z,1015.69
2016-04-30T08:12:04.671Z,1015.73
2016-04-30T08:13:04.690Z,1015.68
2016-04-30T08:14:04.707Z,1015.6
2016-04-30T08:15:04.726Z,1015.58
2016-04-30T08:16:04.729Z,1015.58
2016-04-30T08:17:04.748Z,1015.58
2016-04-30T08:18:04.765Z,1015.53
2016-04-30T08:19:06.331Z,1015.5
2016-04-30T08:20:04.803Z,1015.48
2016-04-30T08:21:04.820Z,1015.53
2016-04-30T08:22:04.886Z,1015.61
2016-04-30T08:23:04.842Z,1015.58
2016-04-30T08:24:04.860Z,1015.58
2016-04-30T08:25:04.926Z,1015.57
2016-04-30T08:26:04.897Z,1015.56
2016-04-30T08:27:04.899Z,1015.53
2016-04-30T08:28:04.918Z,1015.51
2016-04-30T08:29:04.936Z,1015.47
2016-04-30T08:30:04.954Z,1015.45
2016-04-30T08:31:05.614Z,1015.46
2016-04-30T08:33:04.994Z,1015.23
2016-04-30T08:34:04.996Z,1015.16
2016-04-30T08:35:05.014Z,1015.07
2016-04-30T08:36:05.032Z,1015.04
2016-04-30T08:37:05.052Z,1015.05
2016-04-30T08:38:05.054Z,1015.07
2016-04-30T08:39:05.071Z,1015.05
2016-04-30T08:40:05.090Z,1014.98
2016-04-30T08:41:05.093Z,1014.98
2016-04-30T08:42:05.127Z,1014.96
2016-04-30T08:43:05.114Z,1015.03
2016-04-30T08:44:05.132Z,1014.99
2016-04-30T08:45:05.151Z,1014.97
2016-04-30T08:46:05.154Z,1014.93
2016-04-30T08:47:05.156Z,1014.95
2016-04-30T08:48:05.174Z,1014.94
2016-04-30T08:49:05.240Z,1014.91
2016-04-30T08:50:05.196Z,1014.9
2016-04-30T08:51:05.198Z,1014.95
2016-04-30T08:52:05.217Z,1014.93
2016-04-30T08:53:05.220Z,1014.91
2016-04-30T08:54:05.222Z,1014.91
2016-04-30T08:55:05.239Z,1014.9
2016-04-30T08:56:05.930Z,1014.91
2016-04-30T08:57:05.245Z,1014.86
2016-04-30T08:58:06.108Z,1014.84
2016-04-30T08:59:05.266Z,1014.85
2016-04-30T09:00:05.269Z,1014.82
2016-04-30T09:01:05.272Z,1014.83
2016-04-30T09:02:05.275Z,1014.79
2016-04-30T09:03:07.683Z,1014.85
2016-04-30T09:04:06.561Z,1014.83
2016-04-30T09:05:05.299Z,1014.79
2016-04-30T09:06:05.302Z,1014.84
2016-04-30T09:07:05.897Z,1014.8
2016-04-30T09:08:05.322Z,1014.78
2016-04-30T09:09:05.825Z,1014.79
2016-04-30T09:10:05.327Z,1014.82
2016-04-30T09:11:05.329Z,1014.79
2016-04-30T09:12:05.332Z,1014.79
2016-04-30T09:13:05.335Z,1014.75
2016-04-30T09:14:05.338Z,1014.79
2016-04-30T09:15:05.356Z,1014.74
2016-04-30T09:16:05.359Z,1014.81
2016-04-30T09:17:05.362Z,1014.8
2016-04-30T09:18:05.365Z,1014.78
2016-04-30T09:19:06.023Z,1014.77
2016-04-30T09:20:05.370Z,1014.76
2016-04-30T09:21:05.373Z,1014.77
2016-04-30T09:22:05.376Z,1014.77
2016-04-30T09:23:05.393Z,1014.77
2016-04-30T09:24:05.396Z,1014.79
2016-04-30T09:25:05.384Z,1014.77
2016-04-30T09:26:05.402Z,1014.76
2016-04-30T09:27:05.403Z,1014.79
2016-04-30T09:28:05.406Z,1014.81
2016-04-30T09:29:05.409Z,1014.8
2016-04-30T09:30:05.412Z,1014.78
2016-04-30T09:31:05.414Z,1014.76
2016-04-30T09:32:05.417Z,1014.71
2016-04-30T09:33:05.420Z,1014.74
2016-04-30T09:34:05.423Z,1014.72
2016-04-30T09:35:05.425Z,1014.78
2016-04-30T09:36:05.429Z,1014.72
2016-04-30T09:37:05.447Z,1014.73
2016-04-30T09:38:05.449Z,1014.75
2016-04-30T09:39:05.452Z,1014.77
2016-04-30T09:40:05.455Z,1014.73
2016-04-30T09:41:05.458Z,1014.73
2016-04-30T09:42:05.460Z,1014.7
2016-04-30T09:43:05.463Z,1014.67
2016-04-30T09:44:05.465Z,1014.71
2016-04-30T09:45:05.469Z,1014.67
2016-04-30T09:46:05.471Z,1014.71
2016-04-30T09:47:05.473Z,1014.62
2016-04-30T09:48:05.493Z,1014.68
2016-04-30T09:49:05.495Z,1014.7
2016-04-30T09:50:05.997Z,1014.71
2016-04-30T09:51:05.501Z,1014.67
2016-04-30T09:52:05.596Z,1014.66
2016-04-30T09:53:05.506Z,1014.63
2016-04-30T09:54:05.509Z,1014.67
2016-04-30T09:55:05.511Z,1014.67
2016-04-30T09:56:05.514Z,1014.64
2016-04-30T09:57:05.516Z,1014.56
2016-04-30T09:58:05.519Z,1014.58
2016-04-30T09:59:05.522Z,1014.57
2016-04-30T10:00:05.525Z,1014.56
2016-04-30T10:01:05.542Z,1014.55
2016-04-30T10:02:05.545Z,1014.49
2016-04-30T10:03:05.548Z,1014.56
2016-04-30T10:04:05.551Z,1014.5
2016-04-30T10:05:05.553Z,1014.52
2016-04-30T10:06:05.556Z,1014.5
2016-04-30T10:07:05.558Z,1014.48
2016-04-30T10:08:05.561Z,1014.51
2016-04-30T10:09:05.564Z,1014.48
2016-04-30T10:10:05.566Z,1014.51
2016-04-30T10:11:05.569Z,1014.47
2016-04-30T10:12:05.572Z,1014.46
2016-04-30T10:13:05.590Z,1014.41
2016-04-30T10:14:05.594Z,1014.43
2016-04-30T10:15:05.596Z,1014.45
2016-04-30T10:16:05.599Z,1014.48
2016-04-30T10:17:05.601Z,1014.47
2016-04-30T10:18:05.604Z,1014.48
2016-04-30T10:19:05.857Z,1014.47
2016-04-30T10:20:05.609Z,1014.47
2016-04-30T10:21:05.613Z,1014.43
2016-04-30T10:23:05.634Z,1014.47
2016-04-30T10:24:06.855Z,1014.48
2016-04-30T10:25:06.592Z,1014.42
2016-04-30T10:26:05.641Z,1014.46
2016-04-30T10:27:05.645Z,1014.44
2016-04-30T10:28:05.647Z,1014.44
2016-04-30T10:29:05.665Z,1014.41
2016-04-30T10:30:05.653Z,1014.44
2016-04-30T10:31:05.670Z,1014.41
2016-04-30T10:32:05.673Z,1014.39
2016-04-30T10:33:05.676Z,1014.38
2016-04-30T10:34:05.678Z,1014.4
2016-04-30T10:35:05.681Z,1014.39
2016-04-30T10:36:05.683Z,1014.39
2016-04-30T10:37:05.687Z,1014.4
2016-04-30T10:38:05.689Z,1014.37
2016-04-30T10:39:05.708Z,1014.4
2016-04-30T10:40:05.711Z,1014.46
2016-04-30T10:41:05.713Z,1014.42
2016-04-30T10:42:05.716Z,1014.47
2016-04-30T10:43:05.719Z,1014.39
2016-04-30T10:44:05.721Z,1014.45
2016-04-30T10:45:05.724Z,1014.47
2016-04-30T10:46:05.727Z,1014.46
2016-04-30T10:47:05.729Z,1014.43
2016-04-30T10:48:05.732Z,1014.44
2016-04-30T10:49:05.750Z,1014.45
2016-04-30T10:50:05.752Z,1014.46
2016-04-30T10:51:05.755Z,1014.45
2016-04-30T10:52:05.757Z,1014.43
2016-04-30T10:53:05.761Z,1014.46
2016-04-30T10:54:05.764Z,1014.43
2016-04-30T10:55:05.766Z,1014.43
2016-04-30T10:56:05.769Z,1014.41
2016-04-30T10:57:05.787Z,1014.39
2016-04-30T10:58:05.790Z,1014.4
2016-04-30T10:59:05.793Z,1014.39
2016-04-30T11:00:05.795Z,1014.37
2016-04-30T11:01:06.157Z,1014.43
2016-04-30T11:02:05.800Z,1014.39
2016-04-30T11:03:05.804Z,1014.36
2016-04-30T11:04:05.806Z,1014.38
2016-04-30T11:05:05.824Z,1014.33
2016-04-30T11:06:05.921Z,1014.28
2016-04-30T11:07:05.830Z,1014.28
2016-04-30T11:08:05.832Z,1014.31
2016-04-30T11:09:06.179Z,1014.33
2016-04-30T11:10:05.839Z,1014.34
2016-04-30T11:11:05.841Z,1014.34
2016-04-30T11:12:05.843Z,1014.32
2016-04-30T11:13:05.861Z,1014.33
2016-04-30T11:14:05.850Z,1014.33
2016-04-30T11:15:05.854Z,1014.33
2016-04-30T11:16:05.860Z,1014.28
2016-04-30T11:17:05.874Z,1014.26
2016-04-30T11:18:05.877Z,1014.3
2016-04-30T11:19:05.880Z,1014.32
2016-04-30T11:20:05.883Z,1014.31
2016-04-30T11:21:05.885Z,1014.31
2016-04-30T11:22:05.888Z,1014.27
2016-04-30T11:23:05.890Z,1014.28
2016-04-30T11:24:05.893Z,1014.3
2016-04-30T11:25:05.912Z,1014.28
2016-04-30T11:26:05.914Z,1014.2
2016-04-30T11:27:05.917Z,1014.25
2016-04-30T11:28:05.920Z,1014.25
2016-04-30T11:29:05.922Z,1014.23
2016-04-30T11:30:05.925Z,1014.23
2016-04-30T11:32:05.945Z,1014.2
2016-04-30T11:33:05.948Z,1014.24
2016-04-30T11:34:06.342Z,1014.25
2016-04-30T11:35:05.954Z,1014.22
2016-04-30T11:36:05.957Z,1014.18
2016-04-30T11:37:05.959Z,1014.18
2016-04-30T11:38:05.961Z,1014.16
2016-04-30T11:39:05.980Z,1014.13
2016-04-30T11:40:05.983Z,1014.14
2016-04-30T11:41:05.985Z,1014.17
2016-04-30T11:42:06.427Z,1014.17
2016-04-30T11:43:05.991Z,1014.18
2016-04-30T11:44:05.994Z,1014.21
2016-04-30T11:45:06.013Z,1014.19
2016-04-30T11:46:06.016Z,1014.18
2016-04-30T11:47:06.018Z,1014.18
2016-04-30T11:48:06.020Z,1014.15
2016-04-30T11:49:06.023Z,1014.2
2016-04-30T11:50:06.026Z,1014.18
2016-04-30T11:51:06.044Z,1014.2
2016-04-30T11:52:06.046Z,1014.18
2016-04-30T11:53:06.049Z,1014.17
2016-04-30T11:54:06.051Z,1014.17
2016-04-30T11:55:06.054Z,1014.17
2016-04-30T11:56:06.073Z,1014.21
2016-04-30T11:57:06.076Z,1014.18
2016-04-30T11:58:06.078Z,1014.2
2016-04-30T11:59:06.081Z,1014.18
2016-04-30T12:00:06.084Z,1014.18
2016-04-30T12:01:06.087Z,1014.17
2016-04-30T12:02:06.106Z,1014.15
2016-04-30T12:03:06.107Z,1014.15
2016-04-30T12:04:06.110Z,1014.14
2016-04-30T12:05:06.114Z,1014.11
2016-04-30T12:06:06.116Z,1014.12
2016-04-30T12:07:06.134Z,1014.09
2016-04-30T12:08:06.137Z,1014.04
2016-04-30T12:09:06.139Z,1013.98
2016-04-30T12:10:06.141Z,1013.98
2016-04-30T12:11:06.144Z,1014.04
2016-04-30T12:12:06.163Z,1014.06
2016-04-30T12:13:06.166Z,1014.1
2016-04-30T12:14:06.168Z,1014.11